sensor_id;sensor_type;location;lat;lon;timestamp;P1;durP1;ratioP1;P2;durP2;ratioP2
297;SDS011;133;49.626;9.680;2023-03-01T00:00:20;19.57;;;11.03;;
297;SDS011;133;49.626;9.680;2023-03-01T00:02:45;18.00;;;10.60;;
297;SDS011;133;49.626;9.680;2023-03-01T00:05:11;18.33;;;11.17;;
297;SDS011;133;49.626;9.680;2023-03-01T00:07:37;18.70;;;11.83;;
297;SDS011;133;49.626;9.680;2023-03-01T00:10:03;17.00;;;11.60;;
297;SDS011;133;49.626;9.680;2023-03-01T00:12:28;18.50;;;11.87;;
297;SDS011;133;49.626;9.680;2023-03-01T00:14:55;19.60;;;11.10;;
297;SDS011;133;49.626;9.680;2023-03-01T00:17:21;15.10;;;11.03;;
297;SDS011;133;49.626;9.680;2023-03-01T00:19:47;17.47;;;11.63;;
297;SDS011;133;49.626;9.680;2023-03-01T00:22:12;18.33;;;11.87;;
297;SDS011;133;49.626;9.680;2023-03-01T00:24:38;16.70;;;11.57;;
297;SDS011;133;49.626;9.680;2023-03-01T00:27:03;18.77;;;11.70;;
297;SDS011;133;49.626;9.680;2023-03-01T00:29:29;16.60;;;11.47;;
297;SDS011;133;49.626;9.680;2023-03-01T00:31:54;14.53;;;10.60;;
297;SDS011;133;49.626;9.680;2023-03-01T00:34:20;16.20;;;11.67;;
297;SDS011;133;49.626;9.680;2023-03-01T00:36:46;21.77;;;11.60;;
297;SDS011;133;49.626;9.680;2023-03-01T00:39:12;19.83;;;11.73;;
297;SDS011;133;49.626;9.680;2023-03-01T00:41:39;17.33;;;11.70;;
297;SDS011;133;49.626;9.680;2023-03-01T00:44:06;20.23;;;11.97;;
297;SDS011;133;49.626;9.680;2023-03-01T00:46:32;20.13;;;12.60;;
297;SDS011;133;49.626;9.680;2023-03-01T00:48:58;18.10;;;11.60;;
297;SDS011;133;49.626;9.680;2023-03-01T00:51:27;19.87;;;12.10;;
297;SDS011;133;49.626;9.680;2023-03-01T00:53:54;17.90;;;11.17;;
297;SDS011;133;49.626;9.680;2023-03-01T00:56:21;16.63;;;11.10;;
297;SDS011;133;49.626;9.680;2023-03-01T00:58:47;17.10;;;11.13;;
297;SDS011;133;49.626;9.680;2023-03-01T01:01:15;18.47;;;11.80;;
297;SDS011;133;49.626;9.680;2023-03-01T01:06:13;20.50;;;12.37;;
297;SDS011;133;49.626;9.680;2023-03-01T01:08:46;17.67;;;11.80;;
297;SDS011;133;49.626;9.680;2023-03-01T01:11:12;19.13;;;12.60;;
297;SDS011;133;49.626;9.680;2023-03-01T01:13:38;17.80;;;12.17;;
297;SDS011;133;49.626;9.680;2023-03-01T01:16:05;17.47;;;12.10;;
297;SDS011;133;49.626;9.680;2023-03-01T01:18:32;16.20;;;11.50;;
297;SDS011;133;49.626;9.680;2023-03-01T01:21:02;21.67;;;12.57;;
297;SDS011;133;49.626;9.680;2023-03-01T01:23:32;14.77;;;10.37;;
297;SDS011;133;49.626;9.680;2023-03-01T01:26:03;20.17;;;12.20;;
297;SDS011;133;49.626;9.680;2023-03-01T01:28:29;16.73;;;11.23;;
297;SDS011;133;49.626;9.680;2023-03-01T01:30:55;19.97;;;12.43;;
297;SDS011;133;49.626;9.680;2023-03-01T01:33:21;20.33;;;12.47;;
297;SDS011;133;49.626;9.680;2023-03-01T01:35:46;16.77;;;12.00;;
297;SDS011;133;49.626;9.680;2023-03-01T01:38:12;17.03;;;12.17;;
297;SDS011;133;49.626;9.680;2023-03-01T01:40:44;17.87;;;11.77;;
297;SDS011;133;49.626;9.680;2023-03-01T01:43:15;19.97;;;12.43;;
297;SDS011;133;49.626;9.680;2023-03-01T01:45:49;19.17;;;11.43;;
297;SDS011;133;49.626;9.680;2023-03-01T01:48:20;19.40;;;11.97;;
297;SDS011;133;49.626;9.680;2023-03-01T01:50:50;19.97;;;11.40;;
297;SDS011;133;49.626;9.680;2023-03-01T01:53:25;15.87;;;11.60;;
297;SDS011;133;49.626;9.680;2023-03-01T01:55:53;18.47;;;12.37;;
297;SDS011;133;49.626;9.680;2023-03-01T01:58:23;17.27;;;11.60;;
297;SDS011;133;49.626;9.680;2023-03-01T02:00:52;17.57;;;11.60;;
297;SDS011;133;49.626;9.680;2023-03-01T02:03:20;17.23;;;11.37;;
297;SDS011;133;49.626;9.680;2023-03-01T02:08:22;18.03;;;10.60;;
297;SDS011;133;49.626;9.680;2023-03-01T02:10:51;19.77;;;13.10;;
297;SDS011;133;49.626;9.680;2023-03-01T02:13:17;17.90;;;11.80;;
297;SDS011;133;49.626;9.680;2023-03-01T02:15:43;20.90;;;13.10;;
297;SDS011;133;49.626;9.680;2023-03-01T02:18:10;18.00;;;12.13;;
297;SDS011;133;49.626;9.680;2023-03-01T02:23:30;18.67;;;12.17;;
297;SDS011;133;49.626;9.680;2023-03-01T02:26:56;21.77;;;12.33;;
297;SDS011;133;49.626;9.680;2023-03-01T02:29:02;17.95;;;12.90;;
297;SDS011;133;49.626;9.680;2023-03-01T02:31:30;17.90;;;11.43;;
297;SDS011;133;49.626;9.680;2023-03-01T02:34:10;22.10;;;12.80;;
297;SDS011;133;49.626;9.680;2023-03-01T02:36:40;20.53;;;12.40;;
297;SDS011;133;49.626;9.680;2023-03-01T02:39:11;18.70;;;11.95;;
297;SDS011;133;49.626;9.680;2023-03-01T02:41:45;23.67;;;12.57;;
297;SDS011;133;49.626;9.680;2023-03-01T02:44:14;23.83;;;13.07;;
297;SDS011;133;49.626;9.680;2023-03-01T02:46:44;19.27;;;12.13;;
297;SDS011;133;49.626;9.680;2023-03-01T02:49:32;19.73;;;12.10;;
297;SDS011;133;49.626;9.680;2023-03-01T02:57:33;20.20;;;12.77;;
297;SDS011;133;49.626;9.680;2023-03-01T03:00:06;24.40;;;13.27;;
297;SDS011;133;49.626;9.680;2023-03-01T03:02:34;19.48;;;12.20;;
297;SDS011;133;49.626;9.680;2023-03-01T03:05:11;22.05;;;12.45;;
297;SDS011;133;49.626;9.680;2023-03-01T03:07:43;19.10;;;12.38;;
297;SDS011;133;49.626;9.680;2023-03-01T03:10:11;20.33;;;12.88;;
297;SDS011;133;49.626;9.680;2023-03-01T03:12:44;19.60;;;12.63;;
297;SDS011;133;49.626;9.680;2023-03-01T03:15:13;21.75;;;12.95;;
297;SDS011;133;49.626;9.680;2023-03-01T03:17:40;20.10;;;12.40;;
297;SDS011;133;49.626;9.680;2023-03-01T03:20:07;20.23;;;12.85;;
297;SDS011;133;49.626;9.680;2023-03-01T03:22:37;26.52;;;13.80;;
297;SDS011;133;49.626;9.680;2023-03-01T03:25:04;22.88;;;13.27;;
297;SDS011;133;49.626;9.680;2023-03-01T03:27:35;19.88;;;12.90;;
297;SDS011;133;49.626;9.680;2023-03-01T03:30:05;20.60;;;12.93;;
297;SDS011;133;49.626;9.680;2023-03-01T03:32:37;22.50;;;13.65;;
297;SDS011;133;49.626;9.680;2023-03-01T03:35:04;22.13;;;13.25;;
297;SDS011;133;49.626;9.680;2023-03-01T03:37:43;27.48;;;14.15;;
297;SDS011;133;49.626;9.680;2023-03-01T03:40:28;26.17;;;14.95;;
297;SDS011;133;49.626;9.680;2023-03-01T03:43:04;25.45;;;14.57;;
297;SDS011;133;49.626;9.680;2023-03-01T03:45:39;27.65;;;15.18;;
297;SDS011;133;49.626;9.680;2023-03-01T03:48:05;21.33;;;13.15;;
297;SDS011;133;49.626;9.680;2023-03-01T03:50:32;21.63;;;13.55;;
297;SDS011;133;49.626;9.680;2023-03-01T03:53:02;18.80;;;13.40;;
297;SDS011;133;49.626;9.680;2023-03-01T03:55:29;22.17;;;13.43;;
297;SDS011;133;49.626;9.680;2023-03-01T03:57:57;21.20;;;13.02;;
297;SDS011;133;49.626;9.680;2023-03-01T04:00:26;23.35;;;13.75;;
297;SDS011;133;49.626;9.680;2023-03-01T04:02:53;19.73;;;12.55;;
297;SDS011;133;49.626;9.680;2023-03-01T04:05:21;20.27;;;12.77;;
297;SDS011;133;49.626;9.680;2023-03-01T04:07:47;22.07;;;12.97;;
297;SDS011;133;49.626;9.680;2023-03-01T04:10:14;18.90;;;12.53;;
297;SDS011;133;49.626;9.680;2023-03-01T04:12:41;19.88;;;12.25;;
297;SDS011;133;49.626;9.680;2023-03-01T04:15:10;24.10;;;13.25;;
297;SDS011;133;49.626;9.680;2023-03-01T04:17:40;21.63;;;12.98;;
297;SDS011;133;49.626;9.680;2023-03-01T04:20:07;20.20;;;12.55;;
297;SDS011;133;49.626;9.680;2023-03-01T04:22:34;21.17;;;12.73;;
297;SDS011;133;49.626;9.680;2023-03-01T04:25:00;19.73;;;12.13;;
297;SDS011;133;49.626;9.680;2023-03-01T04:27:27;20.20;;;12.57;;
297;SDS011;133;49.626;9.680;2023-03-01T04:29:52;23.40;;;13.30;;
297;SDS011;133;49.626;9.680;2023-03-01T04:32:18;30.30;;;17.30;;
297;SDS011;133;49.626;9.680;2023-03-01T04:34:43;25.80;;;15.17;;
297;SDS011;133;49.626;9.680;2023-03-01T04:37:09;23.93;;;14.20;;
297;SDS011;133;49.626;9.680;2023-03-01T04:39:34;20.67;;;12.87;;
297;SDS011;133;49.626;9.680;2023-03-01T04:42:10;21.30;;;12.25;;
297;SDS011;133;49.626;9.680;2023-03-01T04:44:42;20.08;;;12.75;;
297;SDS011;133;49.626;9.680;2023-03-01T04:47:08;21.48;;;12.60;;
297;SDS011;133;49.626;9.680;2023-03-01T04:49:33;20.57;;;12.80;;
297;SDS011;133;49.626;9.680;2023-03-01T04:51:59;22.00;;;12.80;;
297;SDS011;133;49.626;9.680;2023-03-01T04:54:27;24.95;;;14.20;;
297;SDS011;133;49.626;9.680;2023-03-01T04:56:53;23.08;;;14.50;;
297;SDS011;133;49.626;9.680;2023-03-01T04:59:20;29.33;;;14.50;;
297;SDS011;133;49.626;9.680;2023-03-01T05:01:49;26.23;;;14.23;;
297;SDS011;133;49.626;9.680;2023-03-01T05:04:15;23.35;;;13.90;;
297;SDS011;133;49.626;9.680;2023-03-01T05:06:41;23.83;;;15.20;;
297;SDS011;133;49.626;9.680;2023-03-01T05:09:06;24.40;;;13.60;;
297;SDS011;133;49.626;9.680;2023-03-01T05:11:32;24.00;;;14.67;;
297;SDS011;133;49.626;9.680;2023-03-01T05:14:01;34.38;;;16.33;;
297;SDS011;133;49.626;9.680;2023-03-01T05:16:29;23.90;;;13.75;;
297;SDS011;133;49.626;9.680;2023-03-01T05:18:56;22.90;;;13.40;;
297;SDS011;133;49.626;9.680;2023-03-01T05:21:22;21.88;;;13.50;;
297;SDS011;133;49.626;9.680;2023-03-01T05:23:47;24.23;;;14.03;;
297;SDS011;133;49.626;9.680;2023-03-01T05:26:13;20.63;;;13.37;;
297;SDS011;133;49.626;9.680;2023-03-01T05:28:40;20.15;;;13.85;;
297;SDS011;133;49.626;9.680;2023-03-01T05:31:06;23.03;;;14.03;;
297;SDS011;133;49.626;9.680;2023-03-01T05:33:35;22.48;;;12.98;;
297;SDS011;133;49.626;9.680;2023-03-01T05:36:02;21.42;;;12.50;;
297;SDS011;133;49.626;9.680;2023-03-01T05:38:28;22.07;;;13.27;;
297;SDS011;133;49.626;9.680;2023-03-01T05:40:53;26.23;;;16.30;;
297;SDS011;133;49.626;9.680;2023-03-01T05:43:19;26.70;;;16.90;;
297;SDS011;133;49.626;9.680;2023-03-01T05:45:44;25.63;;;14.80;;
297;SDS011;133;49.626;9.680;2023-03-01T05:48:10;31.33;;;16.57;;
297;SDS011;133;49.626;9.680;2023-03-01T05:50:38;26.42;;;15.48;;
297;SDS011;133;49.626;9.680;2023-03-01T05:53:07;26.33;;;15.05;;
297;SDS011;133;49.626;9.680;2023-03-01T05:55:39;23.65;;;13.50;;
297;SDS011;133;49.626;9.680;2023-03-01T05:58:10;21.55;;;14.00;;
297;SDS011;133;49.626;9.680;2023-03-01T06:00:39;23.40;;;14.68;;
297;SDS011;133;49.626;9.680;2023-03-01T06:03:04;23.17;;;14.90;;
297;SDS011;133;49.626;9.680;2023-03-01T06:05:30;40.00;;;21.63;;
297;SDS011;133;49.626;9.680;2023-03-01T06:07:58;39.23;;;22.67;;
297;SDS011;133;49.626;9.680;2023-03-01T06:10:24;40.25;;;22.02;;
297;SDS011;133;49.626;9.680;2023-03-01T06:12:50;45.07;;;23.70;;
297;SDS011;133;49.626;9.680;2023-03-01T06:15:16;80.10;;;38.30;;
297;SDS011;133;49.626;9.680;2023-03-01T06:17:42;40.15;;;22.55;;
297;SDS011;133;49.626;9.680;2023-03-01T06:20:13;29.90;;;17.40;;
297;SDS011;133;49.626;9.680;2023-03-01T06:22:40;32.00;;;17.60;;
297;SDS011;133;49.626;9.680;2023-03-01T06:25:06;30.70;;;15.88;;
297;SDS011;133;49.626;9.680;2023-03-01T06:27:32;106.32;;;40.35;;
297;SDS011;133;49.626;9.680;2023-03-01T06:29:58;73.40;;;32.27;;
297;SDS011;133;49.626;9.680;2023-03-01T06:32:24;37.80;;;19.30;;
297;SDS011;133;49.626;9.680;2023-03-01T06:34:49;41.60;;;21.53;;
297;SDS011;133;49.626;9.680;2023-03-01T06:37:15;34.50;;;18.40;;
297;SDS011;133;49.626;9.680;2023-03-01T06:39:42;31.52;;;17.30;;
297;SDS011;133;49.626;9.680;2023-03-01T06:42:08;32.30;;;16.53;;
297;SDS011;133;49.626;9.680;2023-03-01T06:44:35;25.65;;;14.85;;
297;SDS011;133;49.626;9.680;2023-03-01T06:47:01;31.60;;;15.80;;
297;SDS011;133;49.626;9.680;2023-03-01T06:49:26;27.50;;;14.97;;
297;SDS011;133;49.626;9.680;2023-03-01T06:51:52;24.93;;;13.27;;
297;SDS011;133;49.626;9.680;2023-03-01T06:54:18;22.57;;;13.83;;
297;SDS011;133;49.626;9.680;2023-03-01T06:56:47;27.75;;;14.35;;
297;SDS011;133;49.626;9.680;2023-03-01T06:59:13;20.42;;;12.93;;
297;SDS011;133;49.626;9.680;2023-03-01T07:01:39;24.70;;;13.73;;
297;SDS011;133;49.626;9.680;2023-03-01T07:04:04;24.40;;;13.50;;
297;SDS011;133;49.626;9.680;2023-03-01T07:06:30;21.40;;;13.73;;
297;SDS011;133;49.626;9.680;2023-03-01T07:08:56;21.87;;;14.00;;
297;SDS011;133;49.626;9.680;2023-03-01T07:11:22;26.77;;;15.03;;
297;SDS011;133;49.626;9.680;2023-03-01T07:13:48;25.67;;;14.23;;
297;SDS011;133;49.626;9.680;2023-03-01T07:16:14;23.27;;;14.80;;
297;SDS011;133;49.626;9.680;2023-03-01T07:18:40;25.83;;;15.03;;
297;SDS011;133;49.626;9.680;2023-03-01T07:21:06;20.83;;;13.10;;
297;SDS011;133;49.626;9.680;2023-03-01T07:23:33;21.45;;;13.70;;
297;SDS011;133;49.626;9.680;2023-03-01T07:25:58;25.17;;;14.70;;
297;SDS011;133;49.626;9.680;2023-03-01T07:28:25;22.03;;;14.43;;
297;SDS011;133;49.626;9.680;2023-03-01T07:30:51;24.97;;;14.90;;
297;SDS011;133;49.626;9.680;2023-03-01T07:33:17;20.07;;;13.00;;
297;SDS011;133;49.626;9.680;2023-03-01T07:35:43;22.60;;;14.60;;
297;SDS011;133;49.626;9.680;2023-03-01T07:38:08;25.13;;;14.17;;
297;SDS011;133;49.626;9.680;2023-03-01T07:40:34;22.07;;;13.30;;
297;SDS011;133;49.626;9.680;2023-03-01T07:43:00;21.10;;;12.53;;
297;SDS011;133;49.626;9.680;2023-03-01T07:45:26;21.60;;;14.40;;
297;SDS011;133;49.626;9.680;2023-03-01T07:47:52;19.87;;;13.30;;
297;SDS011;133;49.626;9.680;2023-03-01T07:50:19;19.50;;;13.10;;
297;SDS011;133;49.626;9.680;2023-03-01T07:52:45;24.97;;;13.97;;
297;SDS011;133;49.626;9.680;2023-03-01T07:55:12;20.53;;;12.40;;
297;SDS011;133;49.626;9.680;2023-03-01T07:57:38;21.60;;;12.57;;
297;SDS011;133;49.626;9.680;2023-03-01T08:00:04;18.80;;;12.70;;
297;SDS011;133;49.626;9.680;2023-03-01T08:02:32;22.57;;;13.30;;
297;SDS011;133;49.626;9.680;2023-03-01T08:04:57;22.57;;;13.80;;
297;SDS011;133;49.626;9.680;2023-03-01T08:07:23;22.83;;;13.53;;
297;SDS011;133;49.626;9.680;2023-03-01T08:09:48;21.10;;;12.67;;
297;SDS011;133;49.626;9.680;2023-03-01T08:12:14;21.17;;;12.63;;
297;SDS011;133;49.626;9.680;2023-03-01T08:14:41;20.63;;;12.97;;
297;SDS011;133;49.626;9.680;2023-03-01T08:17:07;23.80;;;14.13;;
297;SDS011;133;49.626;9.680;2023-03-01T08:19:33;19.70;;;12.83;;
297;SDS011;133;49.626;9.680;2023-03-01T08:22:00;25.43;;;14.10;;
297;SDS011;133;49.626;9.680;2023-03-01T08:24:27;20.53;;;13.30;;
297;SDS011;133;49.626;9.680;2023-03-01T08:26:53;19.83;;;13.60;;
297;SDS011;133;49.626;9.680;2023-03-01T08:29:19;19.90;;;13.70;;
297;SDS011;133;49.626;9.680;2023-03-01T08:31:45;26.50;;;14.00;;
297;SDS011;133;49.626;9.680;2023-03-01T08:34:12;20.80;;;13.00;;
297;SDS011;133;49.626;9.680;2023-03-01T08:36:40;21.40;;;13.17;;
297;SDS011;133;49.626;9.680;2023-03-01T08:39:07;21.57;;;13.97;;
297;SDS011;133;49.626;9.680;2023-03-01T08:41:35;20.73;;;12.73;;
297;SDS011;133;49.626;9.680;2023-03-01T08:44:01;23.83;;;14.97;;
297;SDS011;133;49.626;9.680;2023-03-01T08:46:30;20.80;;;13.57;;
297;SDS011;133;49.626;9.680;2023-03-01T08:49:04;20.27;;;13.30;;
297;SDS011;133;49.626;9.680;2023-03-01T08:51:32;18.53;;;12.07;;
297;SDS011;133;49.626;9.680;2023-03-01T08:54:01;19.00;;;13.17;;
297;SDS011;133;49.626;9.680;2023-03-01T08:56:31;22.40;;;14.10;;
297;SDS011;133;49.626;9.680;2023-03-01T08:58:57;23.60;;;13.83;;
297;SDS011;133;49.626;9.680;2023-03-01T09:01:23;19.37;;;13.20;;
297;SDS011;133;49.626;9.680;2023-03-01T09:03:48;20.60;;;14.33;;
297;SDS011;133;49.626;9.680;2023-03-01T09:06:14;23.43;;;14.40;;
297;SDS011;133;49.626;9.680;2023-03-01T09:08:44;23.47;;;15.57;;
297;SDS011;133;49.626;9.680;2023-03-01T09:11:14;21.07;;;13.57;;
297;SDS011;133;49.626;9.680;2023-03-01T09:13:42;22.17;;;14.33;;
297;SDS011;133;49.626;9.680;2023-03-01T09:16:09;22.13;;;13.67;;
297;SDS011;133;49.626;9.680;2023-03-01T09:18:36;26.10;;;15.40;;
297;SDS011;133;49.626;9.680;2023-03-01T09:23:32;25.50;;;15.23;;
297;SDS011;133;49.626;9.680;2023-03-01T09:25:59;21.87;;;15.10;;
297;SDS011;133;49.626;9.680;2023-03-01T09:28:24;25.20;;;14.73;;
297;SDS011;133;49.626;9.680;2023-03-01T09:30:50;24.93;;;15.17;;
297;SDS011;133;49.626;9.680;2023-03-01T09:33:15;23.57;;;15.77;;
297;SDS011;133;49.626;9.680;2023-03-01T09:35:41;25.57;;;15.00;;
297;SDS011;133;49.626;9.680;2023-03-01T09:38:12;23.20;;;15.00;;
297;SDS011;133;49.626;9.680;2023-03-01T09:40:41;25.90;;;15.03;;
297;SDS011;133;49.626;9.680;2023-03-01T09:45:48;23.47;;;15.20;;
297;SDS011;133;49.626;9.680;2023-03-01T09:48:18;24.97;;;15.00;;
297;SDS011;133;49.626;9.680;2023-03-01T09:50:47;25.70;;;15.10;;
297;SDS011;133;49.626;9.680;2023-03-01T09:53:13;24.23;;;15.20;;
297;SDS011;133;49.626;9.680;2023-03-01T09:56:25;27.07;;;16.00;;
297;SDS011;133;49.626;9.680;2023-03-01T09:59:05;25.63;;;15.17;;
297;SDS011;133;49.626;9.680;2023-03-01T10:04:49;23.80;;;15.80;;
297;SDS011;133;49.626;9.680;2023-03-01T10:07:47;23.93;;;14.93;;
297;SDS011;133;49.626;9.680;2023-03-01T10:10:48;22.77;;;14.97;;
297;SDS011;133;49.626;9.680;2023-03-01T10:15:52;26.67;;;15.77;;
297;SDS011;133;49.626;9.680;2023-03-01T10:18:24;26.50;;;15.27;;
297;SDS011;133;49.626;9.680;2023-03-01T10:23:25;24.00;;;14.60;;
297;SDS011;133;49.626;9.680;2023-03-01T10:29:01;25.60;;;14.50;;
297;SDS011;133;49.626;9.680;2023-03-01T10:34:09;24.87;;;16.20;;
297;SDS011;133;49.626;9.680;2023-03-01T10:36:36;25.60;;;16.30;;
297;SDS011;133;49.626;9.680;2023-03-01T10:39:06;25.27;;;16.27;;
297;SDS011;133;49.626;9.680;2023-03-01T10:41:44;34.93;;;21.20;;
297;SDS011;133;49.626;9.680;2023-03-01T10:44:34;32.33;;;20.50;;
297;SDS011;133;49.626;9.680;2023-03-01T10:47:18;28.50;;;19.20;;
297;SDS011;133;49.626;9.680;2023-03-01T10:50:00;23.53;;;15.60;;
297;SDS011;133;49.626;9.680;2023-03-01T10:52:30;25.40;;;15.90;;
297;SDS011;133;49.626;9.680;2023-03-01T10:54:59;22.10;;;15.60;;
297;SDS011;133;49.626;9.680;2023-03-01T10:57:32;21.60;;;16.00;;
297;SDS011;133;49.626;9.680;2023-03-01T11:00:24;24.03;;;15.67;;
297;SDS011;133;49.626;9.680;2023-03-01T11:05:24;22.03;;;15.30;;
297;SDS011;133;49.626;9.680;2023-03-01T11:07:57;25.97;;;16.53;;
297;SDS011;133;49.626;9.680;2023-03-01T11:10:25;25.93;;;17.07;;
297;SDS011;133;49.626;9.680;2023-03-01T11:12:53;25.13;;;16.70;;
297;SDS011;133;49.626;9.680;2023-03-01T11:15:30;24.37;;;15.40;;
297;SDS011;133;49.626;9.680;2023-03-01T11:17:55;25.20;;;16.77;;
297;SDS011;133;49.626;9.680;2023-03-01T11:20:35;24.90;;;15.40;;
297;SDS011;133;49.626;9.680;2023-03-01T11:23:03;24.43;;;17.73;;
297;SDS011;133;49.626;9.680;2023-03-01T11:25:37;26.57;;;17.07;;
297;SDS011;133;49.626;9.680;2023-03-01T11:28:05;24.83;;;16.53;;
297;SDS011;133;49.626;9.680;2023-03-01T11:33:28;21.90;;;15.47;;
297;SDS011;133;49.626;9.680;2023-03-01T11:36:06;24.27;;;16.40;;
297;SDS011;133;49.626;9.680;2023-03-01T11:39:03;40.43;;;15.80;;
297;SDS011;133;49.626;9.680;2023-03-01T11:41:41;22.60;;;16.13;;
297;SDS011;133;49.626;9.680;2023-03-01T11:44:18;23.93;;;16.67;;
297;SDS011;133;49.626;9.680;2023-03-01T11:46:58;25.57;;;17.10;;
297;SDS011;133;49.626;9.680;2023-03-01T11:49:36;22.17;;;16.50;;
297;SDS011;133;49.626;9.680;2023-03-01T11:57:48;19.67;;;15.40;;
297;SDS011;133;49.626;9.680;2023-03-01T12:26:10;22.03;;;15.97;;
297;SDS011;133;49.626;9.680;2023-03-01T12:42:38;21.17;;;16.93;;
297;SDS011;133;49.626;9.680;2023-03-01T12:50:57;19.80;;;16.70;;
297;SDS011;133;49.626;9.680;2023-03-01T12:53:29;19.70;;;15.30;;
297;SDS011;133;49.626;9.680;2023-03-01T12:56:09;21.03;;;15.60;;
297;SDS011;133;49.626;9.680;2023-03-01T13:04:31;20.37;;;15.53;;
297;SDS011;133;49.626;9.680;2023-03-01T13:12:47;21.77;;;15.83;;
297;SDS011;133;49.626;9.680;2023-03-01T13:15:25;22.60;;;14.63;;
297;SDS011;133;49.626;9.680;2023-03-01T13:17:53;20.60;;;15.70;;
297;SDS011;133;49.626;9.680;2023-03-01T13:20:23;19.47;;;15.77;;
297;SDS011;133;49.626;9.680;2023-03-01T13:33:45;20.17;;;15.13;;
297;SDS011;133;49.626;9.680;2023-03-01T13:38:59;18.77;;;14.80;;
297;SDS011;133;49.626;9.680;2023-03-01T13:50:16;19.63;;;14.23;;
297;SDS011;133;49.626;9.680;2023-03-01T13:52:40;21.90;;;14.40;;
297;SDS011;133;49.626;9.680;2023-03-01T13:57:56;22.07;;;16.00;;
297;SDS011;133;49.626;9.680;2023-03-01T14:00:35;22.03;;;16.17;;
297;SDS011;133;49.626;9.680;2023-03-01T14:03:13;18.53;;;14.40;;
297;SDS011;133;49.626;9.680;2023-03-01T14:05:40;19.90;;;15.10;;
297;SDS011;133;49.626;9.680;2023-03-01T14:08:23;21.73;;;15.83;;
297;SDS011;133;49.626;9.680;2023-03-01T14:16:21;21.00;;;14.20;;
297;SDS011;133;49.626;9.680;2023-03-01T14:19:12;29.87;;;15.70;;
297;SDS011;133;49.626;9.680;2023-03-01T14:21:39;23.30;;;15.80;;
297;SDS011;133;49.626;9.680;2023-03-01T14:24:05;25.53;;;17.17;;
297;SDS011;133;49.626;9.680;2023-03-01T14:26:31;22.40;;;16.03;;
297;SDS011;133;49.626;9.680;2023-03-01T14:29:00;21.80;;;16.47;;
297;SDS011;133;49.626;9.680;2023-03-01T14:34:02;18.13;;;14.33;;
297;SDS011;133;49.626;9.680;2023-03-01T14:36:29;25.70;;;15.03;;
297;SDS011;133;49.626;9.680;2023-03-01T14:38:57;19.97;;;15.37;;
297;SDS011;133;49.626;9.680;2023-03-01T14:41:29;23.20;;;16.13;;
297;SDS011;133;49.626;9.680;2023-03-01T14:44:06;19.50;;;14.83;;
297;SDS011;133;49.626;9.680;2023-03-01T14:46:39;21.30;;;14.60;;
297;SDS011;133;49.626;9.680;2023-03-01T14:51:39;17.93;;;13.07;;
297;SDS011;133;49.626;9.680;2023-03-01T14:54:26;21.87;;;15.93;;
297;SDS011;133;49.626;9.680;2023-03-01T14:56:59;19.80;;;14.30;;
297;SDS011;133;49.626;9.680;2023-03-01T14:59:26;18.53;;;14.70;;
297;SDS011;133;49.626;9.680;2023-03-01T15:01:53;20.80;;;15.00;;
297;SDS011;133;49.626;9.680;2023-03-01T15:04:21;21.00;;;14.27;;
297;SDS011;133;49.626;9.680;2023-03-01T15:06:52;24.30;;;14.07;;
297;SDS011;133;49.626;9.680;2023-03-01T15:09:19;24.97;;;15.27;;
297;SDS011;133;49.626;9.680;2023-03-01T15:11:45;22.23;;;15.03;;
297;SDS011;133;49.626;9.680;2023-03-01T15:17:20;18.43;;;13.77;;
297;SDS011;133;49.626;9.680;2023-03-01T15:19:55;20.10;;;13.37;;
297;SDS011;133;49.626;9.680;2023-03-01T15:22:21;21.03;;;14.53;;
297;SDS011;133;49.626;9.680;2023-03-01T15:24:49;23.33;;;13.77;;
297;SDS011;133;49.626;9.680;2023-03-01T15:27:19;22.93;;;14.90;;
297;SDS011;133;49.626;9.680;2023-03-01T15:29:52;21.70;;;15.17;;
297;SDS011;133;49.626;9.680;2023-03-01T15:32:29;18.83;;;13.40;;
297;SDS011;133;49.626;9.680;2023-03-01T15:34:57;19.37;;;13.43;;
297;SDS011;133;49.626;9.680;2023-03-01T15:40:26;20.37;;;13.60;;
297;SDS011;133;49.626;9.680;2023-03-01T15:43:05;20.63;;;14.20;;
297;SDS011;133;49.626;9.680;2023-03-01T15:45:57;21.90;;;13.90;;
297;SDS011;133;49.626;9.680;2023-03-01T15:48:23;18.90;;;13.33;;
297;SDS011;133;49.626;9.680;2023-03-01T15:50:54;23.27;;;14.57;;
297;SDS011;133;49.626;9.680;2023-03-01T15:53:22;20.10;;;13.50;;
297;SDS011;133;49.626;9.680;2023-03-01T15:55:48;21.87;;;13.37;;
297;SDS011;133;49.626;9.680;2023-03-01T15:58:17;21.70;;;13.77;;
297;SDS011;133;49.626;9.680;2023-03-01T16:00:48;22.00;;;14.47;;
297;SDS011;133;49.626;9.680;2023-03-01T16:03:17;21.17;;;13.40;;
297;SDS011;133;49.626;9.680;2023-03-01T16:05:46;22.97;;;14.47;;
297;SDS011;133;49.626;9.680;2023-03-01T16:08:13;19.60;;;13.93;;
297;SDS011;133;49.626;9.680;2023-03-01T16:10:40;22.50;;;14.77;;
297;SDS011;133;49.626;9.680;2023-03-01T16:13:06;20.07;;;13.90;;
297;SDS011;133;49.626;9.680;2023-03-01T16:15:33;19.63;;;13.03;;
297;SDS011;133;49.626;9.680;2023-03-01T16:18:03;20.03;;;13.10;;
297;SDS011;133;49.626;9.680;2023-03-01T16:20:30;18.97;;;13.03;;
297;SDS011;133;49.626;9.680;2023-03-01T16:23:03;19.20;;;13.13;;
297;SDS011;133;49.626;9.680;2023-03-01T16:25:31;22.57;;;12.50;;
297;SDS011;133;49.626;9.680;2023-03-01T16:27:57;19.03;;;12.87;;
297;SDS011;133;49.626;9.680;2023-03-01T16:30:25;20.10;;;13.03;;
297;SDS011;133;49.626;9.680;2023-03-01T16:32:51;24.80;;;13.20;;
297;SDS011;133;49.626;9.680;2023-03-01T16:35:18;18.93;;;12.27;;
297;SDS011;133;49.626;9.680;2023-03-01T16:37:45;19.70;;;12.70;;
297;SDS011;133;49.626;9.680;2023-03-01T16:40:21;16.00;;;11.90;;
297;SDS011;133;49.626;9.680;2023-03-01T16:42:52;19.07;;;12.67;;
297;SDS011;133;49.626;9.680;2023-03-01T16:45:18;16.00;;;11.63;;
297;SDS011;133;49.626;9.680;2023-03-01T16:47:44;16.77;;;11.40;;
297;SDS011;133;49.626;9.680;2023-03-01T16:50:10;16.90;;;11.90;;
297;SDS011;133;49.626;9.680;2023-03-01T16:52:36;20.37;;;12.70;;
297;SDS011;133;49.626;9.680;2023-03-01T16:55:03;17.53;;;11.90;;
297;SDS011;133;49.626;9.680;2023-03-01T16:57:30;20.43;;;12.70;;
297;SDS011;133;49.626;9.680;2023-03-01T16:59:56;18.90;;;12.37;;
297;SDS011;133;49.626;9.680;2023-03-01T17:02:22;21.83;;;10.87;;
297;SDS011;133;49.626;9.680;2023-03-01T17:04:54;20.20;;;11.67;;
297;SDS011;133;49.626;9.680;2023-03-01T17:07:20;17.70;;;11.87;;
297;SDS011;133;49.626;9.680;2023-03-01T17:09:46;15.70;;;11.13;;
297;SDS011;133;49.626;9.680;2023-03-01T17:12:12;16.30;;;11.63;;
297;SDS011;133;49.626;9.680;2023-03-01T17:14:39;17.20;;;11.17;;
297;SDS011;133;49.626;9.680;2023-03-01T17:17:06;22.83;;;12.37;;
297;SDS011;133;49.626;9.680;2023-03-01T17:19:36;16.83;;;11.90;;
297;SDS011;133;49.626;9.680;2023-03-01T17:22:08;18.50;;;12.00;;
297;SDS011;133;49.626;9.680;2023-03-01T17:24:38;19.80;;;11.80;;
297;SDS011;133;49.626;9.680;2023-03-01T17:27:05;18.83;;;12.10;;
297;SDS011;133;49.626;9.680;2023-03-01T17:29:31;21.47;;;13.33;;
297;SDS011;133;49.626;9.680;2023-03-01T17:31:57;18.80;;;13.00;;
297;SDS011;133;49.626;9.680;2023-03-01T17:34:23;18.33;;;12.80;;
297;SDS011;133;49.626;9.680;2023-03-01T17:36:49;22.53;;;13.80;;
297;SDS011;133;49.626;9.680;2023-03-01T17:39:16;20.87;;;13.40;;
297;SDS011;133;49.626;9.680;2023-03-01T17:41:44;15.80;;;11.60;;
297;SDS011;133;49.626;9.680;2023-03-01T17:44:10;23.30;;;13.83;;
297;SDS011;133;49.626;9.680;2023-03-01T17:46:35;22.50;;;13.20;;
297;SDS011;133;49.626;9.680;2023-03-01T17:49:01;21.13;;;12.90;;